createdAt,value
2023-03-01T00:00:16.697Z,20.07
2023-03-01T00:03:04.348Z,17.93
2023-03-01T00:05:50.957Z,18.33
2023-03-01T00:08:37.909Z,15.20
2023-03-01T00:11:26.380Z,15.20
2023-03-01T00:14:13.593Z,13.07
2023-03-01T00:17:00.248Z,16.00
2023-03-01T00:19:48.123Z,15.63
2023-03-01T00:22:34.375Z,15.83
2023-03-01T00:25:20.818Z,28.73
2023-03-01T00:28:07.327Z,19.23
2023-03-01T00:30:53.834Z,22.20
2023-03-01T00:33:40.305Z,27.23
2023-03-01T00:36:30.837Z,35.70
2023-03-01T00:39:18.122Z,35.23
2023-03-01T00:42:05.283Z,40.23
2023-03-01T00:44:51.688Z,27.07
2023-03-01T00:47:38.058Z,23.73
2023-03-01T00:50:25.399Z,22.67
2023-03-01T00:53:13.326Z,21.67
2023-03-01T00:56:01.372Z,27.57
2023-03-01T00:58:48.009Z,20.50
2023-03-01T01:01:34.835Z,19.57
2023-03-01T01:04:21.722Z,20.83
2023-03-01T01:07:08.155Z,18.80
2023-03-01T01:09:56.157Z,21.87
2023-03-01T01:12:42.854Z,20.37
2023-03-01T01:15:29.204Z,16.10
2023-03-01T01:18:17.750Z,17.80
2023-03-01T01:21:08.981Z,21.23
2023-03-01T01:23:55.877Z,24.63
2023-03-01T01:26:44.196Z,22.37
2023-03-01T01:29:30.768Z,22.30
2023-03-01T01:32:17.241Z,21.07
2023-03-01T01:35:03.736Z,22.50
2023-03-01T01:37:50.274Z,22.03
2023-03-01T01:40:36.877Z,19.73
2023-03-01T01:43:27.629Z,21.50
2023-03-01T01:46:27.388Z,15.40
2023-03-01T01:49:26.515Z,19.30
2023-03-01T01:52:18.346Z,20.67
2023-03-01T01:55:08.812Z,21.20
2023-03-01T01:58:00.222Z,24.77
2023-03-01T02:00:48.652Z,25.47
2023-03-01T02:03:38.463Z,20.70
2023-03-01T02:06:31.376Z,19.40
2023-03-01T02:09:22.267Z,17.17
2023-03-01T02:12:09.111Z,19.27
2023-03-01T02:14:58.586Z,16.90
2023-03-01T02:17:46.458Z,16.07
2023-03-01T02:20:38.005Z,18.10
2023-03-01T02:23:24.959Z,22.17
2023-03-01T02:26:20.142Z,16.27
2023-03-01T02:29:08.501Z,15.27
2023-03-01T02:31:57.424Z,17.50
2023-03-01T02:34:44.722Z,14.97
2023-03-01T02:37:31.169Z,13.83
2023-03-01T02:40:19.089Z,15.87
2023-03-01T02:43:09.844Z,25.47
2023-03-01T02:46:01.206Z,15.97
2023-03-01T02:48:50.146Z,25.70
2023-03-01T02:51:48.672Z,18.67
2023-03-01T02:54:41.886Z,15.47
2023-03-01T02:57:30.461Z,12.60
2023-03-01T03:00:21.019Z,15.60
2023-03-01T03:03:10.218Z,19.93
2023-03-01T03:05:56.931Z,15.47
2023-03-01T03:08:43.338Z,15.17
2023-03-01T03:11:29.780Z,19.97
2023-03-01T03:14:18.127Z,16.60
2023-03-01T03:17:07.572Z,17.20
2023-03-01T03:19:55.735Z,15.07
2023-03-01T03:22:42.831Z,24.57
2023-03-01T03:25:30.950Z,16.80
2023-03-01T03:28:17.915Z,14.33
2023-03-01T03:31:04.657Z,14.53
2023-03-01T03:33:51.573Z,15.67
2023-03-01T03:36:39.594Z,16.13
2023-03-01T03:39:26.192Z,12.70
2023-03-01T03:42:12.907Z,17.43
2023-03-01T03:44:59.240Z,14.33
2023-03-01T03:47:46.451Z,11.90
2023-03-01T03:50:34.029Z,16.20
2023-03-01T03:53:23.301Z,13.87
2023-03-01T03:56:09.921Z,16.83
2023-03-01T03:58:56.790Z,15.10
2023-03-01T04:01:43.297Z,19.47
2023-03-01T04:04:29.736Z,20.57
2023-03-01T04:07:16.271Z,17.80
2023-03-01T04:10:04.485Z,17.90
2023-03-01T04:12:50.998Z,22.53
2023-03-01T04:15:38.329Z,22.17
2023-03-01T04:18:26.114Z,20.07
2023-03-01T04:21:13.177Z,19.40
2023-03-01T04:23:59.747Z,18.10
2023-03-01T04:26:47.581Z,18.40
2023-03-01T04:29:33.980Z,17.37
2023-03-01T04:32:20.529Z,23.47
2023-03-01T04:35:07.132Z,21.77
2023-03-01T04:37:53.927Z,20.13
2023-03-01T04:40:40.420Z,23.43
2023-03-01T04:43:28.472Z,24.27
2023-03-01T04:46:17.880Z,22.57
2023-03-01T04:49:04.990Z,16.93
2023-03-01T04:51:51.374Z,17.97
2023-03-01T04:54:38.458Z,17.87
2023-03-01T04:57:25.234Z,17.47
2023-03-01T05:00:24.713Z,18.10
2023-03-01T05:03:11.519Z,18.73
2023-03-01T05:06:01.601Z,18.77
2023-03-01T05:08:47.972Z,19.17
2023-03-01T05:11:36.862Z,17.03
2023-03-01T05:14:23.867Z,18.83
2023-03-01T05:17:12.005Z,23.07
2023-03-01T05:20:00.579Z,19.37
2023-03-01T05:22:46.986Z,17.97
2023-03-01T05:25:34.386Z,16.73
2023-03-01T05:28:22.002Z,22.97
2023-03-01T05:31:10.576Z,18.60
2023-03-01T05:33:58.553Z,19.67
2023-03-01T05:36:45.108Z,25.63
2023-03-01T05:39:32.575Z,23.53
2023-03-01T05:42:19.498Z,33.53
2023-03-01T05:45:10.628Z,23.27
2023-03-01T05:47:57.322Z,25.50
2023-03-01T05:50:46.608Z,20.43
2023-03-01T05:53:32.960Z,21.43
2023-03-01T05:56:19.491Z,20.53
2023-03-01T05:59:06.976Z,16.77
2023-03-01T06:01:54.481Z,19.80
2023-03-01T06:04:41.195Z,19.90
2023-03-01T06:07:29.225Z,19.60
2023-03-01T06:10:16.623Z,19.20
2023-03-01T06:13:03.137Z,21.03
2023-03-01T06:15:49.649Z,19.33
2023-03-01T06:18:36.009Z,22.23
2023-03-01T06:21:22.429Z,21.67
2023-03-01T06:24:10.407Z,19.57
2023-03-01T06:26:56.859Z,18.80
2023-03-01T06:29:43.749Z,21.57
2023-03-01T06:32:32.732Z,34.13
2023-03-01T06:35:21.173Z,26.33
2023-03-01T06:38:08.277Z,38.50
2023-03-01T06:40:57.495Z,18.43
2023-03-01T06:43:44.151Z,30.43
2023-03-01T06:46:30.930Z,23.17
2023-03-01T06:49:18.743Z,26.90
2023-03-01T06:52:05.561Z,18.27
2023-03-01T06:54:52.145Z,23.73
2023-03-01T06:57:40.158Z,18.20
2023-03-01T07:00:27.958Z,24.27
2023-03-01T07:03:14.487Z,23.10
2023-03-01T07:06:00.889Z,18.17
2023-03-01T07:08:47.258Z,33.27
2023-03-01T07:11:33.858Z,22.63
2023-03-01T07:14:21.815Z,20.97
2023-03-01T07:17:08.469Z,18.70
2023-03-01T07:19:55.287Z,18.77
2023-03-01T07:22:42.953Z,24.03
2023-03-01T07:25:29.545Z,17.70
2023-03-01T07:28:16.060Z,21.13
2023-03-01T07:31:04.910Z,20.83
2023-03-01T07:33:51.488Z,18.67
2023-03-01T07:36:37.997Z,18.47
2023-03-01T07:39:24.992Z,20.40
2023-03-01T07:42:11.742Z,18.10
2023-03-01T07:44:58.120Z,15.83
2023-03-01T07:47:45.903Z,21.17
2023-03-01T07:50:32.356Z,16.27
2023-03-01T07:53:18.894Z,19.23
2023-03-01T07:56:06.580Z,16.40
2023-03-01T07:58:53.381Z,13.10
2023-03-01T08:01:39.845Z,19.87
2023-03-01T08:04:27.737Z,16.40
2023-03-01T08:07:14.495Z,30.60
2023-03-01T08:10:00.880Z,17.23
2023-03-01T08:12:47.317Z,17.00
2023-03-01T08:15:33.986Z,14.30
2023-03-01T08:18:21.428Z,15.37
2023-03-01T08:21:11.146Z,18.57
2023-03-01T08:23:57.880Z,14.07
2023-03-01T08:26:44.475Z,13.97
2023-03-01T08:29:32.753Z,15.00
2023-03-01T08:32:19.443Z,19.63
2023-03-01T08:35:07.286Z,17.87
2023-03-01T08:37:54.898Z,18.17
2023-03-01T08:40:41.246Z,15.10
2023-03-01T08:43:27.900Z,13.53
2023-03-01T08:46:14.882Z,15.43
2023-03-01T08:49:02.432Z,17.73
2023-03-01T08:51:49.964Z,23.23
2023-03-01T08:54:38.388Z,22.13
2023-03-01T08:57:24.754Z,16.57
2023-03-01T09:00:15.854Z,27.70
2023-03-01T09:03:02.728Z,17.53
2023-03-01T09:05:51.104Z,18.87
2023-03-01T09:08:38.044Z,18.57
2023-03-01T09:11:25.801Z,19.60
2023-03-01T09:14:13.193Z,14.80
2023-03-01T09:17:03.843Z,15.77
2023-03-01T09:19:50.502Z,20.07
2023-03-01T09:22:36.986Z,16.33
2023-03-01T09:25:23.868Z,19.60
2023-03-01T09:28:24.191Z,18.53
2023-03-01T09:31:16.379Z,23.57
2023-03-01T09:34:02.800Z,17.63
2023-03-01T09:36:49.136Z,16.27
2023-03-01T09:39:35.618Z,16.13
2023-03-01T09:42:22.109Z,17.30
2023-03-01T09:45:17.165Z,18.40
2023-03-01T09:48:05.993Z,18.47
2023-03-01T09:50:53.817Z,15.43
2023-03-01T09:53:41.033Z,17.53
2023-03-01T09:56:35.523Z,18.20
2023-03-01T09:59:28.744Z,18.60
2023-03-01T10:02:28.212Z,19.37
2023-03-01T10:05:37.280Z,15.23
2023-03-01T10:08:34.380Z,18.17
2023-03-01T10:11:25.313Z,16.80
2023-03-01T10:14:26.562Z,15.70
2023-03-01T10:17:28.225Z,17.17
2023-03-01T10:20:23.284Z,19.10
2023-03-01T10:23:11.071Z,15.97
2023-03-01T10:26:31.062Z,17.13
2023-03-01T10:29:17.990Z,17.30
2023-03-01T10:32:07.427Z,17.17
2023-03-01T10:34:55.457Z,15.83
2023-03-01T10:37:58.857Z,18.00
2023-03-01T10:40:58.283Z,15.63
2023-03-01T10:43:48.503Z,16.07
2023-03-01T10:46:36.914Z,15.73
2023-03-01T10:49:26.609Z,16.70
2023-03-01T10:52:22.874Z,19.17
2023-03-01T10:55:27.189Z,20.50
2023-03-01T10:58:21.454Z,18.23
2023-03-01T11:01:26.929Z,18.93
2023-03-01T11:04:16.214Z,16.83
2023-03-01T11:07:04.136Z,16.03
2023-03-01T11:09:52.104Z,16.47
2023-03-01T11:12:38.895Z,13.40
2023-03-01T11:15:28.496Z,18.30
2023-03-01T11:18:28.664Z,13.67
2023-03-01T11:21:20.574Z,14.37
2023-03-01T11:24:12.206Z,11.97
2023-03-01T11:27:03.874Z,11.17
2023-03-01T11:29:56.586Z,12.93
2023-03-01T11:32:46.021Z,13.70
2023-03-01T11:35:36.558Z,13.30
2023-03-01T11:38:25.472Z,14.77
2023-03-01T11:41:17.591Z,16.30
2023-03-01T11:44:11.924Z,19.97
2023-03-01T11:47:15.137Z,13.17
2023-03-01T11:50:15.163Z,11.57
2023-03-01T11:53:22.126Z,11.83
2023-03-01T11:56:23.876Z,12.80
2023-03-01T11:59:34.743Z,13.50
2023-03-01T12:02:38.537Z,9.30
2023-03-01T12:05:52.879Z,13.53
2023-03-01T12:08:43.825Z,15.70
2023-03-01T12:11:43.673Z,12.67
2023-03-01T12:14:48.208Z,11.00
2023-03-01T12:17:49.237Z,12.97
2023-03-01T12:20:45.219Z,12.83
2023-03-01T12:23:56.663Z,10.47
2023-03-01T12:26:53.309Z,13.00
2023-03-01T12:29:47.818Z,12.43
2023-03-01T12:32:49.127Z,17.33
2023-03-01T12:35:55.509Z,11.17
2023-03-01T12:38:44.535Z,15.77
2023-03-01T12:41:48.132Z,12.30
2023-03-01T12:44:50.069Z,14.27
2023-03-01T12:47:59.722Z,9.33
2023-03-01T12:50:49.439Z,12.43
2023-03-01T12:53:40.939Z,11.17
2023-03-01T12:56:31.484Z,12.60
2023-03-01T12:59:23.979Z,8.53
2023-03-01T13:02:22.734Z,11.40
2023-03-01T13:05:25.481Z,16.03
2023-03-01T13:08:18.871Z,13.93
2023-03-01T13:11:07.763Z,14.47
2023-03-01T13:13:55.525Z,10.10
2023-03-01T13:16:46.026Z,12.03
2023-03-01T13:19:36.174Z,8.87
2023-03-01T13:22:33.308Z,9.97
2023-03-01T13:25:22.258Z,10.97
2023-03-01T13:28:43.751Z,11.03
2023-03-01T13:32:05.518Z,11.87
2023-03-01T13:34:56.515Z,8.53
2023-03-01T13:37:43.427Z,9.40
2023-03-01T13:41:01.248Z,12.77
2023-03-01T13:43:49.799Z,7.27
2023-03-01T13:46:36.586Z,20.13
2023-03-01T13:49:25.720Z,9.80
2023-03-01T13:52:41.279Z,7.97
2023-03-01T13:55:36.886Z,8.27
2023-03-01T13:58:27.128Z,9.00
2023-03-01T14:01:24.416Z,9.03
2023-03-01T14:04:23.674Z,7.93
2023-03-01T14:07:14.546Z,8.90
2023-03-01T14:10:05.780Z,9.13
2023-03-01T14:13:01.307Z,7.10
2023-03-01T14:15:59.755Z,9.10
2023-03-01T14:18:54.580Z,9.27
2023-03-01T14:21:40.966Z,8.20
2023-03-01T14:24:28.272Z,9.43
2023-03-01T14:27:16.904Z,7.50
2023-03-01T14:30:05.406Z,6.87
2023-03-01T14:32:56.777Z,7.60
2023-03-01T14:35:43.317Z,8.13
2023-03-01T14:38:36.693Z,16.20
2023-03-01T14:41:25.606Z,7.60
2023-03-01T14:44:20.479Z,11.93
2023-03-01T14:47:07.741Z,9.73
2023-03-01T14:49:59.484Z,12.13
2023-03-01T14:52:50.377Z,13.13
2023-03-01T14:55:39.345Z,8.47
2023-03-01T14:58:27.469Z,5.17
2023-03-01T15:01:17.816Z,8.73
2023-03-01T15:04:05.031Z,6.63
2023-03-01T15:06:53.522Z,6.03
2023-03-01T15:09:42.636Z,6.60
2023-03-01T15:12:41.666Z,7.73
2023-03-01T15:15:37.933Z,7.97
2023-03-01T15:18:30.069Z,8.03
2023-03-01T15:21:20.281Z,6.30
2023-03-01T15:24:12.853Z,5.87
2023-03-01T15:27:02.810Z,9.70
2023-03-01T15:29:52.220Z,9.27
2023-03-01T15:32:43.652Z,6.77
2023-03-01T15:35:43.813Z,9.87
2023-03-01T15:38:39.132Z,8.60
2023-03-01T15:41:31.910Z,8.40
2023-03-01T15:44:19.898Z,8.40
2023-03-01T15:47:24.969Z,9.53
2023-03-01T15:50:19.597Z,10.00
2023-03-01T15:53:11.993Z,7.77
2023-03-01T15:56:00.461Z,9.57
2023-03-01T15:58:47.130Z,8.87
2023-03-01T16:01:35.731Z,11.30
2023-03-01T16:04:24.854Z,7.57
2023-03-01T16:07:12.136Z,10.50
2023-03-01T16:09:59.819Z,8.67
2023-03-01T16:12:48.160Z,11.13
2023-03-01T16:15:36.690Z,9.07
2023-03-01T16:18:23.231Z,13.73
2023-03-01T16:21:12.653Z,8.27
2023-03-01T16:23:59.308Z,9.17
2023-03-01T16:26:47.221Z,9.63
2023-03-01T16:29:34.470Z,11.50
2023-03-01T16:32:20.805Z,8.63
2023-03-01T16:35:08.322Z,11.50
2023-03-01T16:37:55.410Z,8.30
2023-03-01T16:40:43.501Z,10.13
2023-03-01T16:43:32.036Z,9.67
2023-03-01T16:46:21.375Z,9.07
2023-03-01T16:49:07.625Z,9.10
2023-03-01T16:51:55.866Z,8.50
2023-03-01T16:54:42.460Z,8.03
2023-03-01T16:57:31.469Z,10.53
2023-03-01T17:00:19.917Z,8.17
2023-03-01T17:03:06.663Z,9.63
2023-03-01T17:05:53.553Z,10.80
2023-03-01T17:08:41.035Z,12.67
2023-03-01T17:11:29.486Z,12.70
2023-03-01T17:14:16.481Z,15.67
2023-03-01T17:17:04.488Z,15.37
2023-03-01T17:19:51.346Z,14.20
2023-03-01T17:22:37.967Z,15.90
2023-03-01T17:25:24.786Z,17.80
2023-03-01T17:28:11.913Z,15.07
2023-03-01T17:30:58.505Z,14.50
2023-03-01T17:33:46.249Z,14.13
2023-03-01T17:36:41.647Z,16.17
2023-03-01T17:39:35.926Z,15.30
2023-03-01T17:42:22.320Z,9.57
2023-03-01T17:45:09.649Z,11.87
2023-03-01T17:47:56.236Z,11.13
2023-03-01T17:50:44.176Z,14.43
2023-03-01T17:53:30.540Z,12.70
2023-03-01T17:56:17.195Z,10.17
2023-03-01T17:59:04.840Z,13.50
2023-03-01T18:01:52.263Z,8.53
2023-03-01T18:04:38.990Z,11.27
2023-03-01T18:07:28.871Z,15.37
2023-03-01T18:10:15.281Z,16.03
2023-03-01T18:13:01.721Z,15.37
2023-03-01T18:15:48.218Z,22.13
2023-03-01T18:18:34.774Z,19.13
2023-03-01T18:21:21.451Z,16.97
2023-03-01T18:24:09.684Z,19.13
2023-03-01T18:26:56.208Z,14.37
2023-03-01T18:29:42.608Z,13.17
2023-03-01T18:32:29.383Z,15.53
2023-03-01T18:35:15.918Z,18.30
2023-03-01T18:38:02.383Z,18.10
2023-03-01T18:40:50.055Z,24.00
2023-03-01T18:43:36.464Z,22.03
2023-03-01T18:46:22.939Z,17.97
2023-03-01T18:49:09.507Z,17.27
2023-03-01T18:51:56.646Z,22.40
2023-03-01T18:54:43.282Z,23.90
2023-03-01T18:57:31.329Z,21.10
2023-03-01T19:00:19.108Z,18.87
2023-03-01T19:03:05.617Z,18.70
2023-03-01T19:05:52.418Z,28.27
2023-03-01T19:08:40.448Z,23.47
2023-03-01T19:11:32.592Z,22.93
2023-03-01T19:14:20.440Z,15.53
2023-03-01T19:17:06.878Z,23.10
2023-03-01T19:19:53.472Z,14.43
2023-03-01T19:22:40.258Z,18.17
2023-03-01T19:25:27.055Z,14.63
2023-03-01T19:28:13.547Z,15.50
2023-03-01T19:31:02.449Z,16.60
2023-03-01T19:33:50.094Z,18.77
2023-03-01T19:36:36.900Z,16.50
2023-03-01T19:39:23.588Z,12.73
2023-03-01T19:42:10.221Z,18.73
2023-03-01T19:44:56.590Z,20.27
2023-03-01T19:47:48.162Z,15.73
2023-03-01T19:50:34.675Z,15.57
2023-03-01T19:53:21.855Z,12.83
2023-03-01T19:56:09.822Z,14.77
2023-03-01T19:59:00.401Z,15.37
2023-03-01T20:01:47.109Z,17.00
2023-03-01T20:04:34.863Z,15.63
2023-03-01T20:07:21.621Z,15.17
2023-03-01T20:10:08.928Z,14.40
2023-03-01T20:12:55.768Z,13.07
2023-03-01T20:15:43.766Z,16.40
2023-03-01T20:18:30.580Z,13.57
2023-03-01T20:21:24.360Z,17.87
2023-03-01T20:24:11.455Z,16.87
2023-03-01T20:26:57.850Z,8.60
2023-03-01T20:29:45.857Z,11.20
2023-03-01T20:32:32.634Z,14.77
2023-03-01T20:35:19.379Z,11.07
2023-03-01T20:38:07.845Z,14.13
2023-03-01T20:40:59.456Z,12.53
2023-03-01T20:43:53.641Z,10.80
2023-03-01T20:46:40.372Z,12.40
2023-03-01T20:49:26.863Z,12.63
2023-03-01T20:52:13.266Z,11.90
2023-03-01T20:55:00.982Z,13.80
2023-03-01T20:57:47.390Z,12.83
2023-03-01T21:00:33.943Z,10.97
2023-03-01T21:03:20.334Z,13.40
2023-03-01T21:06:07.688Z,13.47
2023-03-01T21:08:55.832Z,12.33
2023-03-01T21:11:43.985Z,11.53
2023-03-01T21:14:38.698Z,13.77
2023-03-01T21:17:25.351Z,14.80
2023-03-01T21:20:12.577Z,13.57
2023-03-01T21:22:58.987Z,14.03
2023-03-01T21:25:45.422Z,13.37
2023-03-01T21:28:34.598Z,15.47
2023-03-01T21:31:23.068Z,14.73
2023-03-01T21:34:09.639Z,13.20
2023-03-01T21:36:56.038Z,11.30
2023-03-01T21:39:42.431Z,10.03
2023-03-01T21:42:28.668Z,13.87
2023-03-01T21:45:16.631Z,16.20
2023-03-01T21:48:03.067Z,14.27
2023-03-01T21:50:56.808Z,9.57
2023-03-01T21:53:43.869Z,13.70
2023-03-01T21:56:34.166Z,11.70
2023-03-01T21:59:22.377Z,11.37
2023-03-01T22:02:14.240Z,13.27
2023-03-01T22:05:00.873Z,13.20
2023-03-01T22:07:47.310Z,12.30
2023-03-01T22:10:33.838Z,13.03
2023-03-01T22:13:20.731Z,13.33
2023-03-01T22:16:08.156Z,12.13
2023-03-01T22:18:56.301Z,9.97
2023-03-01T22:21:45.296Z,9.80
2023-03-01T22:24:31.781Z,11.90
2023-03-01T22:27:18.237Z,9.47
2023-03-01T22:30:06.415Z,8.40
2023-03-01T22:32:53.136Z,12.63
2023-03-01T22:35:44.163Z,8.80
2023-03-01T22:38:30.672Z,10.53
2023-03-01T22:41:17.216Z,10.07
2023-03-01T22:44:04.439Z,10.20
2023-03-01T22:46:51.678Z,10.83
2023-03-01T22:49:38.503Z,12.00
2023-03-01T22:52:26.441Z,11.27
2023-03-01T22:55:13.640Z,10.37
2023-03-01T22:57:59.904Z,11.13
2023-03-01T23:00:46.372Z,11.23
2023-03-01T23:03:33.139Z,10.20
2023-03-01T23:06:21.536Z,10.77
2023-03-01T23:09:13.809Z,15.73
2023-03-01T23:12:02.328Z,21.33
2023-03-01T23:14:48.877Z,16.80
2023-03-01T23:17:35.442Z,13.50
2023-03-01T23:20:22.093Z,12.53
2023-03-01T23:23:08.996Z,11.33
2023-03-01T23:25:58.541Z,14.67
2023-03-01T23:28:45.599Z,11.57
2023-03-01T23:31:32.284Z,9.73
2023-03-01T23:34:19.144Z,8.83
2023-03-01T23:37:05.900Z,10.43
2023-03-01T23:39:52.398Z,10.67
2023-03-01T23:42:40.141Z,9.10
2023-03-01T23:45:26.570Z,13.90
2023-03-01T23:48:14.068Z,10.23
2023-03-01T23:51:05.146Z,11.57
2023-03-01T23:53:55.256Z,14.47
2023-03-01T23:56:43.522Z,14.43
2023-03-01T23:59:31.565Z,12.30
